sensor_id;sensor_type;location;lat;lon;timestamp;P1;durP1;ratioP1;P2;durP2;ratioP2
20179;SDS011;10249;48.900;9.090;2023-03-03T00:00:02;20.23;;;18.20;;
20179;SDS011;10249;48.900;9.090;2023-03-03T00:02:31;22.63;;;13.97;;
20179;SDS011;10249;48.900;9.090;2023-03-03T00:04:58;22.83;;;18.87;;
20179;SDS011;10249;48.900;9.090;2023-03-03T00:07:25;13.27;;;12.53;;
20179;SDS011;10249;48.900;9.090;2023-03-03T00:09:52;19.80;;;18.03;;
20179;SDS011;10249;48.900;9.090;2023-03-03T00:12:20;12.07;;;11.57;;
20179;SDS011;10249;48.900;9.090;2023-03-03T00:14:48;13.03;;;10.93;;
20179;SDS011;10249;48.900;9.090;2023-03-03T00:17:18;13.40;;;12.13;;
20179;SDS011;10249;48.900;9.090;2023-03-03T00:19:48;10.20;;;9.80;;
20179;SDS011;10249;48.900;9.090;2023-03-03T00:22:27;10.17;;;9.87;;
20179;SDS011;10249;48.900;9.090;2023-03-03T00:24:57;9.37;;;8.97;;
20179;SDS011;10249;48.900;9.090;2023-03-03T00:27:26;9.17;;;8.87;;
20179;SDS011;10249;48.900;9.090;2023-03-03T00:29:53;8.50;;;8.20;;
20179;SDS011;10249;48.900;9.090;2023-03-03T00:32:23;21.23;;;17.73;;
20179;SDS011;10249;48.900;9.090;2023-03-03T00:34:52;12.93;;;12.27;;
20179;SDS011;10249;48.900;9.090;2023-03-03T00:37:22;8.80;;;8.50;;
20179;SDS011;10249;48.900;9.090;2023-03-03T00:39:51;10.60;;;10.20;;
20179;SDS011;10249;48.900;9.090;2023-03-03T00:42:18;9.83;;;9.43;;
20179;SDS011;10249;48.900;9.090;2023-03-03T00:44:45;10.27;;;9.67;;
20179;SDS011;10249;48.900;9.090;2023-03-03T00:47:20;9.10;;;8.80;;
20179;SDS011;10249;48.900;9.090;2023-03-03T00:49:49;10.93;;;10.47;;
20179;SDS011;10249;48.900;9.090;2023-03-03T00:52:17;17.10;;;15.67;;
20179;SDS011;10249;48.900;9.090;2023-03-03T00:54:44;13.23;;;12.37;;
20179;SDS011;10249;48.900;9.090;2023-03-03T00:57:11;10.83;;;10.23;;
20179;SDS011;10249;48.900;9.090;2023-03-03T00:59:38;11.57;;;10.83;;
20179;SDS011;10249;48.900;9.090;2023-03-03T01:02:06;11.00;;;10.47;;
20179;SDS011;10249;48.900;9.090;2023-03-03T01:04:33;12.83;;;11.70;;
20179;SDS011;10249;48.900;9.090;2023-03-03T01:07:00;9.00;;;8.70;;
20179;SDS011;10249;48.900;9.090;2023-03-03T01:09:28;12.87;;;12.13;;
20179;SDS011;10249;48.900;9.090;2023-03-03T01:11:55;10.17;;;9.73;;
20179;SDS011;10249;48.900;9.090;2023-03-03T01:14:23;9.97;;;9.43;;
20179;SDS011;10249;48.900;9.090;2023-03-03T01:16:50;10.83;;;10.40;;
20179;SDS011;10249;48.900;9.090;2023-03-03T01:19:17;10.97;;;10.43;;
20179;SDS011;10249;48.900;9.090;2023-03-03T01:21:44;11.27;;;10.77;;
20179;SDS011;10249;48.900;9.090;2023-03-03T01:24:11;12.27;;;11.43;;
20179;SDS011;10249;48.900;9.090;2023-03-03T01:26:39;9.00;;;8.70;;
20179;SDS011;10249;48.900;9.090;2023-03-03T01:29:07;14.07;;;12.70;;
20179;SDS011;10249;48.900;9.090;2023-03-03T01:31:34;13.20;;;12.13;;
20179;SDS011;10249;48.900;9.090;2023-03-03T01:34:01;23.53;;;12.87;;
20179;SDS011;10249;48.900;9.090;2023-03-03T01:36:28;9.93;;;9.27;;
20179;SDS011;10249;48.900;9.090;2023-03-03T01:38:55;11.43;;;10.63;;
20179;SDS011;10249;48.900;9.090;2023-03-03T01:41:24;11.73;;;11.13;;
20179;SDS011;10249;48.900;9.090;2023-03-03T01:43:54;12.30;;;11.60;;
20179;SDS011;10249;48.900;9.090;2023-03-03T01:49:11;11.07;;;10.57;;
20179;SDS011;10249;48.900;9.090;2023-03-03T01:51:42;8.67;;;8.37;;
20179;SDS011;10249;48.900;9.090;2023-03-03T01:54:10;10.97;;;10.57;;
20179;SDS011;10249;48.900;9.090;2023-03-03T01:56:38;10.37;;;9.97;;
20179;SDS011;10249;48.900;9.090;2023-03-03T01:59:08;9.43;;;9.13;;
20179;SDS011;10249;48.900;9.090;2023-03-03T02:01:37;9.00;;;8.70;;
20179;SDS011;10249;48.900;9.090;2023-03-03T02:04:05;9.60;;;9.30;;
20179;SDS011;10249;48.900;9.090;2023-03-03T02:06:32;13.43;;;12.80;;
20179;SDS011;10249;48.900;9.090;2023-03-03T02:09:02;11.30;;;10.90;;
20179;SDS011;10249;48.900;9.090;2023-03-03T02:11:30;8.30;;;8.00;;
20179;SDS011;10249;48.900;9.090;2023-03-03T02:13:58;12.00;;;11.17;;
20179;SDS011;10249;48.900;9.090;2023-03-03T02:16:27;12.13;;;11.50;;
20179;SDS011;10249;48.900;9.090;2023-03-03T02:18:54;11.67;;;11.03;;
20179;SDS011;10249;48.900;9.090;2023-03-03T02:21:22;13.40;;;12.40;;
20179;SDS011;10249;48.900;9.090;2023-03-03T02:23:52;18.47;;;13.10;;
20179;SDS011;10249;48.900;9.090;2023-03-03T02:26:22;15.60;;;14.10;;
20179;SDS011;10249;48.900;9.090;2023-03-03T02:28:50;8.60;;;8.30;;
20179;SDS011;10249;48.900;9.090;2023-03-03T02:31:18;8.53;;;8.23;;
20179;SDS011;10249;48.900;9.090;2023-03-03T02:33:46;10.50;;;10.00;;
20179;SDS011;10249;48.900;9.090;2023-03-03T02:36:14;9.23;;;8.93;;
20179;SDS011;10249;48.900;9.090;2023-03-03T02:38:43;7.97;;;7.77;;
20179;SDS011;10249;48.900;9.090;2023-03-03T02:41:14;12.38;;;11.52;;
20179;SDS011;10249;48.900;9.090;2023-03-03T02:43:45;15.00;;;13.93;;
20179;SDS011;10249;48.900;9.090;2023-03-03T02:46:15;16.67;;;14.10;;
20179;SDS011;10249;48.900;9.090;2023-03-03T02:48:43;9.07;;;8.70;;
20179;SDS011;10249;48.900;9.090;2023-03-03T02:51:10;9.43;;;9.13;;
20179;SDS011;10249;48.900;9.090;2023-03-03T02:53:37;13.47;;;12.40;;
20179;SDS011;10249;48.900;9.090;2023-03-03T02:56:04;9.40;;;8.93;;
20179;SDS011;10249;48.900;9.090;2023-03-03T02:58:33;9.63;;;8.80;;
20179;SDS011;10249;48.900;9.090;2023-03-03T03:01:02;9.80;;;9.50;;
20179;SDS011;10249;48.900;9.090;2023-03-03T03:03:29;7.77;;;7.57;;
20179;SDS011;10249;48.900;9.090;2023-03-03T03:05:56;7.70;;;7.50;;
20179;SDS011;10249;48.900;9.090;2023-03-03T03:08:23;7.80;;;7.60;;
20179;SDS011;10249;48.900;9.090;2023-03-03T03:10:50;8.57;;;8.27;;
20179;SDS011;10249;48.900;9.090;2023-03-03T03:13:17;10.87;;;10.27;;
20179;SDS011;10249;48.900;9.090;2023-03-03T03:15:45;9.17;;;8.80;;
20179;SDS011;10249;48.900;9.090;2023-03-03T03:18:14;8.80;;;8.50;;
20179;SDS011;10249;48.900;9.090;2023-03-03T03:20:41;9.77;;;9.47;;
20179;SDS011;10249;48.900;9.090;2023-03-03T03:23:09;10.57;;;10.07;;
20179;SDS011;10249;48.900;9.090;2023-03-03T03:25:36;9.87;;;9.57;;
20179;SDS011;10249;48.900;9.090;2023-03-03T03:28:09;10.40;;;10.00;;
20179;SDS011;10249;48.900;9.090;2023-03-03T03:30:36;8.80;;;8.50;;
20179;SDS011;10249;48.900;9.090;2023-03-03T03:33:04;9.77;;;9.47;;
20179;SDS011;10249;48.900;9.090;2023-03-03T03:35:32;8.40;;;8.10;;
20179;SDS011;10249;48.900;9.090;2023-03-03T03:38:00;8.70;;;8.40;;
20179;SDS011;10249;48.900;9.090;2023-03-03T03:40:27;8.70;;;8.40;;
20179;SDS011;10249;48.900;9.090;2023-03-03T03:42:54;11.80;;;11.27;;
20179;SDS011;10249;48.900;9.090;2023-03-03T03:45:21;24.13;;;11.27;;
20179;SDS011;10249;48.900;9.090;2023-03-03T03:47:48;9.37;;;9.07;;
20179;SDS011;10249;48.900;9.090;2023-03-03T03:50:16;10.37;;;9.97;;
20179;SDS011;10249;48.900;9.090;2023-03-03T03:52:44;9.20;;;8.90;;
20179;SDS011;10249;48.900;9.090;2023-03-03T03:55:11;12.00;;;11.07;;
20179;SDS011;10249;48.900;9.090;2023-03-03T03:57:39;11.27;;;10.50;;
20179;SDS011;10249;48.900;9.090;2023-03-03T04:00:06;8.93;;;8.63;;
20179;SDS011;10249;48.900;9.090;2023-03-03T04:02:34;8.00;;;7.80;;
20179;SDS011;10249;48.900;9.090;2023-03-03T04:05:01;12.10;;;11.50;;
20179;SDS011;10249;48.900;9.090;2023-03-03T04:07:28;12.53;;;11.90;;
20179;SDS011;10249;48.900;9.090;2023-03-03T04:09:57;10.80;;;10.10;;
20179;SDS011;10249;48.900;9.090;2023-03-03T04:12:24;9.20;;;8.70;;
20179;SDS011;10249;48.900;9.090;2023-03-03T04:14:51;10.93;;;10.00;;
20179;SDS011;10249;48.900;9.090;2023-03-03T04:17:18;12.00;;;11.30;;
20179;SDS011;10249;48.900;9.090;2023-03-03T04:19:45;9.47;;;9.07;;
20179;SDS011;10249;48.900;9.090;2023-03-03T04:22:13;10.83;;;10.30;;
20179;SDS011;10249;48.900;9.090;2023-03-03T04:24:40;10.10;;;9.73;;
20179;SDS011;10249;48.900;9.090;2023-03-03T04:27:08;11.07;;;10.47;;
20179;SDS011;10249;48.900;9.090;2023-03-03T04:29:37;11.33;;;10.63;;
20179;SDS011;10249;48.900;9.090;2023-03-03T04:32:05;10.43;;;9.93;;
20179;SDS011;10249;48.900;9.090;2023-03-03T04:34:32;14.67;;;13.63;;
20179;SDS011;10249;48.900;9.090;2023-03-03T04:36:59;9.30;;;9.00;;
20179;SDS011;10249;48.900;9.090;2023-03-03T04:39:27;14.60;;;13.50;;
20179;SDS011;10249;48.900;9.090;2023-03-03T04:41:54;22.37;;;13.83;;
20179;SDS011;10249;48.900;9.090;2023-03-03T04:44:22;18.57;;;16.80;;
20179;SDS011;10249;48.900;9.090;2023-03-03T04:46:49;14.67;;;13.37;;
20179;SDS011;10249;48.900;9.090;2023-03-03T04:49:17;8.47;;;7.97;;
20179;SDS011;10249;48.900;9.090;2023-03-03T04:51:44;8.10;;;7.87;;
20179;SDS011;10249;48.900;9.090;2023-03-03T04:54:11;7.50;;;7.30;;
20179;SDS011;10249;48.900;9.090;2023-03-03T04:56:38;7.77;;;7.57;;
20179;SDS011;10249;48.900;9.090;2023-03-03T04:59:05;8.97;;;8.67;;
20179;SDS011;10249;48.900;9.090;2023-03-03T05:01:33;9.57;;;9.17;;
20179;SDS011;10249;48.900;9.090;2023-03-03T05:04:01;8.40;;;8.10;;
20179;SDS011;10249;48.900;9.090;2023-03-03T05:06:28;10.87;;;10.47;;
20179;SDS011;10249;48.900;9.090;2023-03-03T05:08:55;12.40;;;11.43;;
20179;SDS011;10249;48.900;9.090;2023-03-03T05:11:23;9.53;;;9.23;;
20179;SDS011;10249;48.900;9.090;2023-03-03T05:13:50;8.53;;;8.23;;
20179;SDS011;10249;48.900;9.090;2023-03-03T05:16:17;13.30;;;12.33;;
20179;SDS011;10249;48.900;9.090;2023-03-03T05:18:46;22.63;;;12.80;;
20179;SDS011;10249;48.900;9.090;2023-03-03T05:21:13;10.10;;;9.60;;
20179;SDS011;10249;48.900;9.090;2023-03-03T05:23:40;10.03;;;9.53;;
20179;SDS011;10249;48.900;9.090;2023-03-03T05:26:07;13.10;;;12.17;;
20179;SDS011;10249;48.900;9.090;2023-03-03T05:28:34;8.57;;;8.17;;
20179;SDS011;10249;48.900;9.090;2023-03-03T05:31:02;16.37;;;14.80;;
20179;SDS011;10249;48.900;9.090;2023-03-03T05:33:29;20.67;;;16.53;;
20179;SDS011;10249;48.900;9.090;2023-03-03T05:35:58;10.93;;;10.43;;
20179;SDS011;10249;48.900;9.090;2023-03-03T05:38:25;8.97;;;8.67;;
20179;SDS011;10249;48.900;9.090;2023-03-03T05:40:52;7.90;;;7.70;;
20179;SDS011;10249;48.900;9.090;2023-03-03T05:43:20;7.80;;;7.60;;
20179;SDS011;10249;48.900;9.090;2023-03-03T05:45:47;8.20;;;7.90;;
20179;SDS011;10249;48.900;9.090;2023-03-03T05:48:20;8.63;;;8.33;;
20179;SDS011;10249;48.900;9.090;2023-03-03T05:50:47;18.27;;;16.33;;
20179;SDS011;10249;48.900;9.090;2023-03-03T05:53:15;18.10;;;16.53;;
20179;SDS011;10249;48.900;9.090;2023-03-03T05:55:42;29.07;;;16.50;;
20179;SDS011;10249;48.900;9.090;2023-03-03T05:58:10;29.17;;;21.47;;
20179;SDS011;10249;48.900;9.090;2023-03-03T06:00:37;26.03;;;19.83;;
20179;SDS011;10249;48.900;9.090;2023-03-03T06:03:04;11.25;;;10.52;;
20179;SDS011;10249;48.900;9.090;2023-03-03T06:05:31;12.17;;;11.17;;
20179;SDS011;10249;48.900;9.090;2023-03-03T06:07:58;10.80;;;10.40;;
20179;SDS011;10249;48.900;9.090;2023-03-03T06:10:26;11.40;;;10.80;;
20179;SDS011;10249;48.900;9.090;2023-03-03T06:12:53;10.80;;;10.30;;
20179;SDS011;10249;48.900;9.090;2023-03-03T06:15:21;12.97;;;11.97;;
20179;SDS011;10249;48.900;9.090;2023-03-03T06:17:48;11.10;;;10.50;;
20179;SDS011;10249;48.900;9.090;2023-03-03T06:20:15;13.27;;;12.67;;
20179;SDS011;10249;48.900;9.090;2023-03-03T06:22:42;9.83;;;9.53;;
20179;SDS011;10249;48.900;9.090;2023-03-03T06:25:09;15.50;;;14.57;;
20179;SDS011;10249;48.900;9.090;2023-03-03T06:27:38;26.13;;;19.77;;
20179;SDS011;10249;48.900;9.090;2023-03-03T06:30:05;26.07;;;21.93;;
20179;SDS011;10249;48.900;9.090;2023-03-03T06:32:32;24.13;;;18.50;;
20179;SDS011;10249;48.900;9.090;2023-03-03T06:35:00;16.83;;;15.73;;
20179;SDS011;10249;48.900;9.090;2023-03-03T06:37:27;12.30;;;11.80;;
20179;SDS011;10249;48.900;9.090;2023-03-03T06:39:54;13.23;;;11.50;;
20179;SDS011;10249;48.900;9.090;2023-03-03T06:42:21;10.70;;;10.30;;
20179;SDS011;10249;48.900;9.090;2023-03-03T06:44:50;16.80;;;14.47;;
20179;SDS011;10249;48.900;9.090;2023-03-03T06:47:17;20.80;;;18.37;;
20179;SDS011;10249;48.900;9.090;2023-03-03T06:49:45;22.50;;;19.67;;
20179;SDS011;10249;48.900;9.090;2023-03-03T06:52:12;15.73;;;14.33;;
20179;SDS011;10249;48.900;9.090;2023-03-03T06:54:40;18.50;;;16.67;;
20179;SDS011;10249;48.900;9.090;2023-03-03T06:57:12;25.03;;;18.77;;
20179;SDS011;10249;48.900;9.090;2023-03-03T06:59:40;13.47;;;12.77;;
20179;SDS011;10249;48.900;9.090;2023-03-03T07:02:11;20.00;;;18.40;;
20179;SDS011;10249;48.900;9.090;2023-03-03T07:04:39;15.60;;;14.47;;
20179;SDS011;10249;48.900;9.090;2023-03-03T07:07:09;25.83;;;22.40;;
20179;SDS011;10249;48.900;9.090;2023-03-03T07:09:36;11.70;;;11.30;;
20179;SDS011;10249;48.900;9.090;2023-03-03T07:12:05;15.43;;;14.67;;
20179;SDS011;10249;48.900;9.090;2023-03-03T07:14:36;17.77;;;16.27;;
20179;SDS011;10249;48.900;9.090;2023-03-03T07:17:09;17.17;;;16.27;;
20179;SDS011;10249;48.900;9.090;2023-03-03T07:19:39;15.70;;;14.53;;
20179;SDS011;10249;48.900;9.090;2023-03-03T07:22:11;17.37;;;16.37;;
20179;SDS011;10249;48.900;9.090;2023-03-03T07:24:40;24.90;;;22.23;;
20179;SDS011;10249;48.900;9.090;2023-03-03T07:27:10;13.67;;;13.07;;
20179;SDS011;10249;48.900;9.090;2023-03-03T07:29:37;12.43;;;11.93;;
20179;SDS011;10249;48.900;9.090;2023-03-03T07:32:11;19.43;;;18.13;;
20179;SDS011;10249;48.900;9.090;2023-03-03T07:34:43;21.30;;;19.17;;
20179;SDS011;10249;48.900;9.090;2023-03-03T07:37:13;25.60;;;20.97;;
20179;SDS011;10249;48.900;9.090;2023-03-03T07:39:42;14.37;;;13.53;;
20179;SDS011;10249;48.900;9.090;2023-03-03T07:42:16;21.20;;;19.03;;
20179;SDS011;10249;48.900;9.090;2023-03-03T07:44:46;23.30;;;20.80;;
20179;SDS011;10249;48.900;9.090;2023-03-03T07:47:18;26.83;;;23.17;;
20179;SDS011;10249;48.900;9.090;2023-03-03T07:49:47;16.13;;;15.23;;
20179;SDS011;10249;48.900;9.090;2023-03-03T07:52:28;28.77;;;21.93;;
20179;SDS011;10249;48.900;9.090;2023-03-03T07:54:58;22.97;;;20.57;;
20179;SDS011;10249;48.900;9.090;2023-03-03T07:57:26;13.60;;;13.10;;
20179;SDS011;10249;48.900;9.090;2023-03-03T07:59:58;20.60;;;18.60;;
20179;SDS011;10249;48.900;9.090;2023-03-03T08:02:34;13.50;;;13.00;;
20179;SDS011;10249;48.900;9.090;2023-03-03T08:05:11;13.67;;;13.13;;
20179;SDS011;10249;48.900;9.090;2023-03-03T08:07:44;14.30;;;13.70;;
20179;SDS011;10249;48.900;9.090;2023-03-03T08:10:25;15.37;;;14.67;;
20179;SDS011;10249;48.900;9.090;2023-03-03T08:12:55;14.10;;;13.50;;
20179;SDS011;10249;48.900;9.090;2023-03-03T08:15:23;17.27;;;16.37;;
20179;SDS011;10249;48.900;9.090;2023-03-03T08:17:51;14.27;;;13.67;;
20179;SDS011;10249;48.900;9.090;2023-03-03T08:20:33;18.27;;;17.13;;
20179;SDS011;10249;48.900;9.090;2023-03-03T08:23:04;14.20;;;13.60;;
20179;SDS011;10249;48.900;9.090;2023-03-03T08:25:31;21.40;;;20.27;;
20179;SDS011;10249;48.900;9.090;2023-03-03T08:27:58;17.97;;;16.80;;
20179;SDS011;10249;48.900;9.090;2023-03-03T08:30:25;15.47;;;14.80;;
20179;SDS011;10249;48.900;9.090;2023-03-03T08:32:52;26.80;;;23.73;;
20179;SDS011;10249;48.900;9.090;2023-03-03T08:35:20;18.43;;;17.17;;
20179;SDS011;10249;48.900;9.090;2023-03-03T08:37:48;17.47;;;16.40;;
20179;SDS011;10249;48.900;9.090;2023-03-03T08:40:15;18.77;;;17.27;;
20179;SDS011;10249;48.900;9.090;2023-03-03T08:42:42;30.60;;;24.73;;
20179;SDS011;10249;48.900;9.090;2023-03-03T08:45:09;20.93;;;19.47;;
20179;SDS011;10249;48.900;9.090;2023-03-03T08:47:36;29.47;;;24.70;;
20179;SDS011;10249;48.900;9.090;2023-03-03T08:50:04;27.17;;;23.90;;
20179;SDS011;10249;48.900;9.090;2023-03-03T08:52:31;21.50;;;19.80;;
20179;SDS011;10249;48.900;9.090;2023-03-03T08:55:00;14.13;;;13.57;;
20179;SDS011;10249;48.900;9.090;2023-03-03T08:57:27;21.70;;;20.80;;
20179;SDS011;10249;48.900;9.090;2023-03-03T08:59:54;19.53;;;17.97;;
20179;SDS011;10249;48.900;9.090;2023-03-03T09:02:21;15.63;;;14.77;;
20179;SDS011;10249;48.900;9.090;2023-03-03T09:04:49;25.57;;;22.23;;
20179;SDS011;10249;48.900;9.090;2023-03-03T09:07:16;19.00;;;17.53;;
20179;SDS011;10249;48.900;9.090;2023-03-03T09:09:43;24.87;;;22.30;;
20179;SDS011;10249;48.900;9.090;2023-03-03T09:12:14;14.97;;;14.37;;
20179;SDS011;10249;48.900;9.090;2023-03-03T09:14:41;17.87;;;16.70;;
20179;SDS011;10249;48.900;9.090;2023-03-03T09:17:17;17.77;;;16.47;;
20179;SDS011;10249;48.900;9.090;2023-03-03T09:19:45;14.90;;;14.30;;
20179;SDS011;10249;48.900;9.090;2023-03-03T09:22:17;15.27;;;14.67;;
20179;SDS011;10249;48.900;9.090;2023-03-03T09:24:44;14.70;;;14.10;;
20179;SDS011;10249;48.900;9.090;2023-03-03T09:27:14;14.80;;;14.20;;
20179;SDS011;10249;48.900;9.090;2023-03-03T09:29:44;15.30;;;14.70;;
20179;SDS011;10249;48.900;9.090;2023-03-03T09:32:17;15.33;;;14.63;;
20179;SDS011;10249;48.900;9.090;2023-03-03T09:34:47;14.73;;;14.10;;
20179;SDS011;10249;48.900;9.090;2023-03-03T09:37:16;14.40;;;13.80;;
20179;SDS011;10249;48.900;9.090;2023-03-03T09:39:45;14.70;;;14.10;;
20179;SDS011;10249;48.900;9.090;2023-03-03T09:42:21;15.00;;;14.30;;
20179;SDS011;10249;48.900;9.090;2023-03-03T09:45:06;15.40;;;14.70;;
20179;SDS011;10249;48.900;9.090;2023-03-03T09:47:41;21.00;;;19.33;;
20179;SDS011;10249;48.900;9.090;2023-03-03T09:50:12;15.30;;;14.50;;
20179;SDS011;10249;48.900;9.090;2023-03-03T09:52:45;24.57;;;22.13;;
20179;SDS011;10249;48.900;9.090;2023-03-03T09:55:20;13.93;;;13.33;;
20179;SDS011;10249;48.900;9.090;2023-03-03T09:57:53;20.37;;;18.73;;
20179;SDS011;10249;48.900;9.090;2023-03-03T10:00:30;18.10;;;16.37;;
20179;SDS011;10249;48.900;9.090;2023-03-03T10:03:09;27.07;;;24.30;;
20179;SDS011;10249;48.900;9.090;2023-03-03T10:05:40;21.03;;;19.27;;
20179;SDS011;10249;48.900;9.090;2023-03-03T10:11:12;14.90;;;14.30;;
20179;SDS011;10249;48.900;9.090;2023-03-03T10:16:29;14.97;;;14.37;;
20179;SDS011;10249;48.900;9.090;2023-03-03T10:19:06;23.80;;;21.80;;
20179;SDS011;10249;48.900;9.090;2023-03-03T10:21:38;15.10;;;14.40;;
20179;SDS011;10249;48.900;9.090;2023-03-03T10:24:10;23.60;;;21.50;;
20179;SDS011;10249;48.900;9.090;2023-03-03T10:26:52;15.33;;;14.63;;
20179;SDS011;10249;48.900;9.090;2023-03-03T10:29:24;18.03;;;17.03;;
20179;SDS011;10249;48.900;9.090;2023-03-03T10:32:03;24.33;;;21.93;;
20179;SDS011;10249;48.900;9.090;2023-03-03T10:37:19;19.13;;;18.17;;
20179;SDS011;10249;48.900;9.090;2023-03-03T10:39:53;15.40;;;14.70;;
20179;SDS011;10249;48.900;9.090;2023-03-03T10:42:26;15.50;;;14.70;;
20179;SDS011;10249;48.900;9.090;2023-03-03T10:44:59;16.40;;;15.60;;
20179;SDS011;10249;48.900;9.090;2023-03-03T10:50:18;16.40;;;15.60;;
20179;SDS011;10249;48.900;9.090;2023-03-03T10:52:47;25.53;;;23.30;;
20179;SDS011;10249;48.900;9.090;2023-03-03T10:58:07;23.30;;;20.80;;
20179;SDS011;10249;48.900;9.090;2023-03-03T11:00:37;28.73;;;25.77;;
20179;SDS011;10249;48.900;9.090;2023-03-03T11:06:03;27.93;;;21.83;;
20179;SDS011;10249;48.900;9.090;2023-03-03T11:08:32;29.63;;;26.87;;
20179;SDS011;10249;48.900;9.090;2023-03-03T11:11:04;28.07;;;25.00;;
20179;SDS011;10249;48.900;9.090;2023-03-03T11:13:35;26.80;;;24.10;;
20179;SDS011;10249;48.900;9.090;2023-03-03T11:18:56;28.95;;;25.83;;
20179;SDS011;10249;48.900;9.090;2023-03-03T11:21:28;20.57;;;18.87;;
20179;SDS011;10249;48.900;9.090;2023-03-03T11:24:03;34.10;;;30.70;;
20179;SDS011;10249;48.900;9.090;2023-03-03T11:29:21;23.53;;;21.50;;
20179;SDS011;10249;48.900;9.090;2023-03-03T11:31:54;19.30;;;17.83;;
20179;SDS011;10249;48.900;9.090;2023-03-03T11:34:31;17.80;;;16.80;;
20179;SDS011;10249;48.900;9.090;2023-03-03T11:37:05;19.90;;;18.70;;
20179;SDS011;10249;48.900;9.090;2023-03-03T11:39:33;30.57;;;27.40;;
20179;SDS011;10249;48.900;9.090;2023-03-03T11:42:02;24.90;;;22.43;;
20179;SDS011;10249;48.900;9.090;2023-03-03T11:44:31;23.90;;;21.50;;
20179;SDS011;10249;48.900;9.090;2023-03-03T11:46:59;26.57;;;24.00;;
20179;SDS011;10249;48.900;9.090;2023-03-03T11:49:28;15.37;;;14.57;;
20179;SDS011;10249;48.900;9.090;2023-03-03T11:52:02;16.00;;;15.20;;
20179;SDS011;10249;48.900;9.090;2023-03-03T11:54:31;19.40;;;17.97;;
20179;SDS011;10249;48.900;9.090;2023-03-03T11:57:08;34.37;;;30.50;;
20179;SDS011;10249;48.900;9.090;2023-03-03T11:59:41;31.10;;;27.80;;
20179;SDS011;10249;48.900;9.090;2023-03-03T12:02:21;23.90;;;21.70;;
20179;SDS011;10249;48.900;9.090;2023-03-03T12:04:50;34.17;;;30.17;;
20179;SDS011;10249;48.900;9.090;2023-03-03T12:07:21;32.70;;;29.17;;
20179;SDS011;10249;48.900;9.090;2023-03-03T12:09:56;19.27;;;17.87;;
20179;SDS011;10249;48.900;9.090;2023-03-03T12:12:26;29.77;;;26.70;;
20179;SDS011;10249;48.900;9.090;2023-03-03T12:15:04;16.27;;;15.47;;
20179;SDS011;10249;48.900;9.090;2023-03-03T12:20:15;16.63;;;15.83;;
20179;SDS011;10249;48.900;9.090;2023-03-03T12:22:47;19.93;;;18.63;;
20179;SDS011;10249;48.900;9.090;2023-03-03T12:25:29;23.90;;;21.63;;
20179;SDS011;10249;48.900;9.090;2023-03-03T12:28:00;26.00;;;23.37;;
20179;SDS011;10249;48.900;9.090;2023-03-03T12:30:40;24.77;;;22.53;;
20179;SDS011;10249;48.900;9.090;2023-03-03T12:33:11;28.17;;;25.30;;
20179;SDS011;10249;48.900;9.090;2023-03-03T12:35:42;19.77;;;18.73;;
20179;SDS011;10249;48.900;9.090;2023-03-03T12:38:15;19.67;;;18.23;;
20179;SDS011;10249;48.900;9.090;2023-03-03T12:40:49;18.40;;;17.30;;
20179;SDS011;10249;48.900;9.090;2023-03-03T12:43:21;19.17;;;17.63;;
20179;SDS011;10249;48.900;9.090;2023-03-03T12:45:54;16.40;;;15.43;;
20179;SDS011;10249;48.900;9.090;2023-03-03T12:48:23;16.27;;;15.47;;
20179;SDS011;10249;48.900;9.090;2023-03-03T12:50:56;16.47;;;15.67;;
20179;SDS011;10249;48.900;9.090;2023-03-03T12:53:29;15.70;;;14.90;;
20179;SDS011;10249;48.900;9.090;2023-03-03T12:56:03;22.43;;;20.67;;
20179;SDS011;10249;48.900;9.090;2023-03-03T12:58:36;20.00;;;18.50;;
20179;SDS011;10249;48.900;9.090;2023-03-03T13:01:09;21.63;;;19.70;;
20179;SDS011;10249;48.900;9.090;2023-03-03T13:03:39;30.23;;;27.23;;
20179;SDS011;10249;48.900;9.090;2023-03-03T13:06:10;21.43;;;19.43;;
20179;SDS011;10249;48.900;9.090;2023-03-03T13:08:50;24.30;;;21.87;;
20179;SDS011;10249;48.900;9.090;2023-03-03T13:11:29;29.90;;;26.97;;
20179;SDS011;10249;48.900;9.090;2023-03-03T13:13:59;31.67;;;27.20;;
20179;SDS011;10249;48.900;9.090;2023-03-03T13:16:30;29.13;;;26.10;;
20179;SDS011;10249;48.900;9.090;2023-03-03T13:19:00;23.00;;;21.13;;
20179;SDS011;10249;48.900;9.090;2023-03-03T13:21:31;33.27;;;29.63;;
20179;SDS011;10249;48.900;9.090;2023-03-03T13:24:01;26.50;;;23.83;;
20179;SDS011;10249;48.900;9.090;2023-03-03T13:26:35;19.83;;;18.40;;
20179;SDS011;10249;48.900;9.090;2023-03-03T13:29:06;16.07;;;15.27;;
20179;SDS011;10249;48.900;9.090;2023-03-03T13:31:36;18.80;;;17.50;;
20179;SDS011;10249;48.900;9.090;2023-03-03T13:34:07;18.67;;;17.50;;
20179;SDS011;10249;48.900;9.090;2023-03-03T13:36:36;20.00;;;18.63;;
20179;SDS011;10249;48.900;9.090;2023-03-03T13:39:07;30.70;;;27.37;;
20179;SDS011;10249;48.900;9.090;2023-03-03T13:41:40;29.50;;;26.33;;
20179;SDS011;10249;48.900;9.090;2023-03-03T13:44:11;16.47;;;15.57;;
20179;SDS011;10249;48.900;9.090;2023-03-03T13:46:40;51.80;;;49.77;;
20179;SDS011;10249;48.900;9.090;2023-03-03T13:49:18;58.87;;;55.23;;
20179;SDS011;10249;48.900;9.090;2023-03-03T13:51:48;52.13;;;50.13;;
20179;SDS011;10249;48.900;9.090;2023-03-03T13:54:25;60.77;;;57.53;;
20179;SDS011;10249;48.900;9.090;2023-03-03T13:57:04;53.77;;;51.63;;
20179;SDS011;10249;48.900;9.090;2023-03-03T13:59:35;52.27;;;49.83;;
20179;SDS011;10249;48.900;9.090;2023-03-03T14:02:09;52.60;;;50.23;;
20179;SDS011;10249;48.900;9.090;2023-03-03T14:04:44;56.07;;;53.60;;
20179;SDS011;10249;48.900;9.090;2023-03-03T14:07:14;51.60;;;49.60;;
20179;SDS011;10249;48.900;9.090;2023-03-03T14:09:46;59.90;;;56.57;;
20179;SDS011;10249;48.900;9.090;2023-03-03T14:12:20;52.07;;;49.80;;
20179;SDS011;10249;48.900;9.090;2023-03-03T14:14:50;52.73;;;50.60;;
20179;SDS011;10249;48.900;9.090;2023-03-03T14:17:22;53.27;;;51.07;;
20179;SDS011;10249;48.900;9.090;2023-03-03T14:19:56;52.83;;;50.73;;
20179;SDS011;10249;48.900;9.090;2023-03-03T14:22:28;53.80;;;51.50;;
20179;SDS011;10249;48.900;9.090;2023-03-03T14:24:59;54.83;;;52.53;;
20179;SDS011;10249;48.900;9.090;2023-03-03T14:27:33;54.03;;;51.90;;
20179;SDS011;10249;48.900;9.090;2023-03-03T14:32:42;53.97;;;51.77;;
20179;SDS011;10249;48.900;9.090;2023-03-03T14:35:24;64.20;;;60.13;;
20179;SDS011;10249;48.900;9.090;2023-03-03T14:37:59;53.03;;;50.70;;
20179;SDS011;10249;48.900;9.090;2023-03-03T14:40:29;64.23;;;60.17;;
20179;SDS011;10249;48.900;9.090;2023-03-03T14:42:59;52.33;;;50.33;;
20179;SDS011;10249;48.900;9.090;2023-03-03T14:45:32;51.60;;;49.60;;
20179;SDS011;10249;48.900;9.090;2023-03-03T14:48:04;51.30;;;49.30;;
20179;SDS011;10249;48.900;9.090;2023-03-03T14:50:34;57.00;;;53.93;;
20179;SDS011;10249;48.900;9.090;2023-03-03T14:53:09;53.53;;;50.80;;
20179;SDS011;10249;48.900;9.090;2023-03-03T14:55:38;50.60;;;48.70;;
20179;SDS011;10249;48.900;9.090;2023-03-03T14:58:08;55.20;;;53.00;;
20179;SDS011;10249;48.900;9.090;2023-03-03T15:00:49;52.00;;;50.00;;
20179;SDS011;10249;48.900;9.090;2023-03-03T15:03:20;51.97;;;49.97;;
20179;SDS011;10249;48.900;9.090;2023-03-03T15:05:48;54.43;;;52.13;;
20179;SDS011;10249;48.900;9.090;2023-03-03T15:08:15;51.93;;;49.87;;
20179;SDS011;10249;48.900;9.090;2023-03-03T15:10:49;52.20;;;50.17;;